sensor_id;sensor_type;location;lat;lon;timestamp;pressure;altitude;pressure_sealevel;temperature;humidity
75668;BME280;64266;48.798;44.756;2023-11-25T00:03:02;99939.13;;;8.82;80.06
75668;BME280;64266;48.798;44.756;2023-11-25T00:08:05;99911.50;;;8.66;80.37
75668;BME280;64266;48.798;44.756;2023-11-25T00:13:09;99940.41;;;8.79;80.37
75668;BME280;64266;48.798;44.756;2023-11-25T00:18:12;99940.97;;;8.81;79.23
75668;BME280;64266;48.798;44.756;2023-11-25T00:23:15;99959.88;;;8.96;78.52
75668;BME280;64266;48.798;44.756;2023-11-25T00:28:20;99958.47;;;8.94;79.91
75668;BME280;64266;48.798;44.756;2023-11-25T00:33:23;99955.44;;;8.79;79.02
75668;BME280;64266;48.798;44.756;2023-11-25T00:38:26;99965.09;;;8.73;79.84
75668;BME280;64266;48.798;44.756;2023-11-25T00:43:29;99968.13;;;8.88;79.58
75668;BME280;64266;48.798;44.756;2023-11-25T00:48:32;100011.38;;;8.94;79.15
75668;BME280;64266;48.798;44.756;2023-11-25T00:53:38;100011.28;;;9.00;78.26
75668;BME280;64266;48.798;44.756;2023-11-25T00:58:41;99998.34;;;8.92;78.89
75668;BME280;64266;48.798;44.756;2023-11-25T01:03:44;99994.16;;;9.03;77.71
75668;BME280;64266;48.798;44.756;2023-11-25T01:08:48;100000.91;;;8.99;77.22
75668;BME280;64266;48.798;44.756;2023-11-25T01:13:50;100005.09;;;9.06;77.87
75668;BME280;64266;48.798;44.756;2023-11-25T01:18:53;100012.56;;;9.09;76.24
75668;BME280;64266;48.798;44.756;2023-11-25T01:23:56;100022.56;;;9.07;76.04
75668;BME280;64266;48.798;44.756;2023-11-25T01:28:59;99996.31;;;8.94;76.95
75668;BME280;64266;48.798;44.756;2023-11-25T01:34:02;100006.28;;;8.92;76.76
75668;BME280;64266;48.798;44.756;2023-11-25T01:39:05;100028.84;;;8.95;77.25
75668;BME280;64266;48.798;44.756;2023-11-25T01:44:08;100044.59;;;9.01;75.94
75668;BME280;64266;48.798;44.756;2023-11-25T01:49:14;100006.59;;;8.84;76.36
75668;BME280;64266;48.798;44.756;2023-11-25T01:54:20;100032.22;;;8.84;75.95
75668;BME280;64266;48.798;44.756;2023-11-25T01:59:25;100050.75;;;8.84;77.14
75668;BME280;64266;48.798;44.756;2023-11-25T02:04:28;100053.03;;;8.80;77.46
75668;BME280;64266;48.798;44.756;2023-11-25T02:09:31;100063.75;;;8.85;77.13
75668;BME280;64266;48.798;44.756;2023-11-25T02:14:34;100072.50;;;8.67;76.03
75668;BME280;64266;48.798;44.756;2023-11-25T02:19:36;100072.22;;;8.57;75.87
75668;BME280;64266;48.798;44.756;2023-11-25T02:24:39;100088.44;;;8.61;76.29
75668;BME280;64266;48.798;44.756;2023-11-25T02:29:42;100091.44;;;8.64;76.05
75668;BME280;64266;48.798;44.756;2023-11-25T02:34:46;100092.16;;;8.71;77.01
75668;BME280;64266;48.798;44.756;2023-11-25T02:39:49;100094.16;;;8.76;76.69
75668;BME280;64266;48.798;44.756;2023-11-25T02:44:52;100103.94;;;8.76;76.45
75668;BME280;64266;48.798;44.756;2023-11-25T02:49:57;100087.41;;;8.62;76.81
75668;BME280;64266;48.798;44.756;2023-11-25T02:55:00;100121.63;;;8.57;76.40
75668;BME280;64266;48.798;44.756;2023-11-25T03:00:06;100127.25;;;8.42;76.01
75668;BME280;64266;48.798;44.756;2023-11-25T03:05:14;100127.84;;;8.19;78.63
75668;BME280;64266;48.798;44.756;2023-11-25T03:10:17;100139.00;;;8.22;76.48
75668;BME280;64266;48.798;44.756;2023-11-25T03:15:21;100131.44;;;8.00;77.22
75668;BME280;64266;48.798;44.756;2023-11-25T03:20:23;100149.69;;;8.08;78.54
75668;BME280;64266;48.798;44.756;2023-11-25T03:25:27;100129.72;;;7.88;78.22
75668;BME280;64266;48.798;44.756;2023-11-25T03:30:32;100124.75;;;7.73;76.90
75668;BME280;64266;48.798;44.756;2023-11-25T03:35:35;100120.84;;;7.51;78.37
75668;BME280;64266;48.798;44.756;2023-11-25T03:40:40;100144.81;;;7.49;78.44
75668;BME280;64266;48.798;44.756;2023-11-25T03:45:43;100111.91;;;7.21;79.85
75668;BME280;64266;48.798;44.756;2023-11-25T03:50:46;100129.78;;;7.12;80.88
75668;BME280;64266;48.798;44.756;2023-11-25T03:55:49;100131.88;;;6.97;81.00
75668;BME280;64266;48.798;44.756;2023-11-25T04:00:52;100180.03;;;7.24;80.68
75668;BME280;64266;48.798;44.756;2023-11-25T04:05:55;100173.38;;;7.15;80.62
75668;BME280;64266;48.798;44.756;2023-11-25T04:11:00;100171.41;;;7.03;80.59
75668;BME280;64266;48.798;44.756;2023-11-25T04:16:09;100177.88;;;7.07;80.44
75668;BME280;64266;48.798;44.756;2023-11-25T04:21:14;100220.03;;;7.14;80.65
75668;BME280;64266;48.798;44.756;2023-11-25T04:26:18;100233.81;;;7.23;80.79
75668;BME280;64266;48.798;44.756;2023-11-25T04:31:22;100164.78;;;6.88;80.38
75668;BME280;64266;48.798;44.756;2023-11-25T04:36:25;100203.00;;;7.17;79.84
75668;BME280;64266;48.798;44.756;2023-11-25T04:41:28;100236.63;;;7.28;78.88
75668;BME280;64266;48.798;44.756;2023-11-25T04:46:31;100231.19;;;7.23;79.41
75668;BME280;64266;48.798;44.756;2023-11-25T04:51:34;100237.47;;;7.22;78.65
75668;BME280;64266;48.798;44.756;2023-11-25T04:56:37;100242.31;;;7.25;79.26
75668;BME280;64266;48.798;44.756;2023-11-25T05:01:40;100259.13;;;7.37;78.20
75668;BME280;64266;48.798;44.756;2023-11-25T05:06:43;100253.25;;;7.28;78.82
75668;BME280;64266;48.798;44.756;2023-11-25T05:11:47;100270.63;;;7.49;80.29
75668;BME280;64266;48.798;44.756;2023-11-25T05:16:50;100281.91;;;7.69;78.66
75668;BME280;64266;48.798;44.756;2023-11-25T05:21:53;100287.22;;;7.62;78.05
75668;BME280;64266;48.798;44.756;2023-11-25T05:26:56;100268.78;;;7.56;77.83
75668;BME280;64266;48.798;44.756;2023-11-25T05:31:59;100275.91;;;7.93;78.53
75668;BME280;64266;48.798;44.756;2023-11-25T05:37:02;100265.88;;;8.08;76.48
75668;BME280;64266;48.798;44.756;2023-11-25T05:42:07;100271.03;;;8.28;76.06
75668;BME280;64266;48.798;44.756;2023-11-25T05:47:10;100244.47;;;8.16;74.68
75668;BME280;64266;48.798;44.756;2023-11-25T05:52:13;100275.91;;;8.31;74.58
75668;BME280;64266;48.798;44.756;2023-11-25T05:57:16;100292.97;;;8.29;74.83
75668;BME280;64266;48.798;44.756;2023-11-25T06:02:18;100299.59;;;8.44;74.36
75668;BME280;64266;48.798;44.756;2023-11-25T06:07:21;100312.50;;;8.28;73.34
75668;BME280;64266;48.798;44.756;2023-11-25T06:12:24;100325.53;;;8.16;75.30
75668;BME280;64266;48.798;44.756;2023-11-25T06:17:28;100338.50;;;8.24;75.83
75668;BME280;64266;48.798;44.756;2023-11-25T06:22:31;100330.59;;;8.24;75.47
75668;BME280;64266;48.798;44.756;2023-11-25T06:27:34;100321.44;;;8.27;75.25
75668;BME280;64266;48.798;44.756;2023-11-25T06:32:36;100316.88;;;8.40;75.73
75668;BME280;64266;48.798;44.756;2023-11-25T06:37:40;100298.28;;;8.29;74.18
75668;BME280;64266;48.798;44.756;2023-11-25T06:42:43;100310.16;;;8.44;75.06
75668;BME280;64266;48.798;44.756;2023-11-25T06:47:47;100304.59;;;8.52;76.31
75668;BME280;64266;48.798;44.756;2023-11-25T06:52:52;100308.72;;;8.73;74.96
75668;BME280;64266;48.798;44.756;2023-11-25T06:57:55;100338.09;;;8.83;74.87
75668;BME280;64266;48.798;44.756;2023-11-25T07:02:58;100333.47;;;9.03;73.10
75668;BME280;64266;48.798;44.756;2023-11-25T07:08:02;100292.22;;;8.96;73.31
75668;BME280;64266;48.798;44.756;2023-11-25T07:13:05;100319.41;;;9.27;72.72
75668;BME280;64266;48.798;44.756;2023-11-25T07:18:08;100342.03;;;9.60;72.79
75668;BME280;64266;48.798;44.756;2023-11-25T07:23:11;100304.34;;;9.46;72.17
75668;BME280;64266;48.798;44.756;2023-11-25T07:28:15;100349.44;;;9.88;71.59
75668;BME280;64266;48.798;44.756;2023-11-25T07:33:19;100322.91;;;9.76;71.64
75668;BME280;64266;48.798;44.756;2023-11-25T07:38:22;100338.75;;;10.12;71.23
75668;BME280;64266;48.798;44.756;2023-11-25T07:43:25;100344.44;;;9.98;71.26
75668;BME280;64266;48.798;44.756;2023-11-25T07:48:29;100379.97;;;10.08;71.41
75668;BME280;64266;48.798;44.756;2023-11-25T07:53:32;100384.84;;;10.11;71.56
75668;BME280;64266;48.798;44.756;2023-11-25T07:58:35;100373.38;;;9.99;70.10
75668;BME280;64266;48.798;44.756;2023-11-25T08:03:38;100382.34;;;10.16;70.71
75668;BME280;64266;48.798;44.756;2023-11-25T08:08:41;100382.72;;;10.20;70.63
75668;BME280;64266;48.798;44.756;2023-11-25T08:13:44;100369.47;;;10.20;70.29
75668;BME280;64266;48.798;44.756;2023-11-25T08:18:47;100388.94;;;10.25;71.57
75668;BME280;64266;48.798;44.756;2023-11-25T08:23:50;100379.75;;;10.28;71.27
75668;BME280;64266;48.798;44.756;2023-11-25T08:28:54;100389.16;;;10.42;70.03
75668;BME280;64266;48.798;44.756;2023-11-25T08:34:02;100394.56;;;10.47;69.35
75668;BME280;64266;48.798;44.756;2023-11-25T08:39:07;100368.06;;;10.17;69.69
75668;BME280;64266;48.798;44.756;2023-11-25T08:44:11;100392.63;;;10.24;69.21
75668;BME280;64266;48.798;44.756;2023-11-25T08:49:17;100402.97;;;10.44;70.16
75668;BME280;64266;48.798;44.756;2023-11-25T08:54:24;100381.69;;;10.51;70.78
75668;BME280;64266;48.798;44.756;2023-11-25T08:59:28;100367.94;;;10.42;69.33
75668;BME280;64266;48.798;44.756;2023-11-25T09:04:31;100403.66;;;10.69;70.20
75668;BME280;64266;48.798;44.756;2023-11-25T09:09:38;100353.63;;;10.43;68.86
75668;BME280;64266;48.798;44.756;2023-11-25T09:14:41;100370.38;;;10.55;69.77
75668;BME280;64266;48.798;44.756;2023-11-25T09:19:45;100394.75;;;10.64;69.36
75668;BME280;64266;48.798;44.756;2023-11-25T09:24:48;100391.41;;;10.68;69.52
75668;BME280;64266;48.798;44.756;2023-11-25T09:29:51;100393.16;;;10.74;69.96
75668;BME280;64266;48.798;44.756;2023-11-25T09:34:55;100365.59;;;10.64;69.06
75668;BME280;64266;48.798;44.756;2023-11-25T09:39:58;100388.22;;;10.89;69.89
75668;BME280;64266;48.798;44.756;2023-11-25T09:45:02;100394.47;;;10.95;69.64
75668;BME280;64266;48.798;44.756;2023-11-25T09:50:06;100372.19;;;10.84;68.19
75668;BME280;64266;48.798;44.756;2023-11-25T09:55:13;100388.72;;;10.98;68.81
75668;BME280;64266;48.798;44.756;2023-11-25T10:00:20;100358.00;;;10.79;69.13
75668;BME280;64266;48.798;44.756;2023-11-25T10:05:24;100377.53;;;11.08;69.06
75668;BME280;64266;48.798;44.756;2023-11-25T10:10:28;100392.19;;;11.10;68.47
75668;BME280;64266;48.798;44.756;2023-11-25T10:15:31;100403.84;;;11.09;67.61
75668;BME280;64266;48.798;44.756;2023-11-25T10:20:41;100363.88;;;10.81;68.92
75668;BME280;64266;48.798;44.756;2023-11-25T10:25:44;100377.38;;;10.79;69.16
75668;BME280;64266;48.798;44.756;2023-11-25T10:30:58;100400.09;;;10.87;67.80
75668;BME280;64266;48.798;44.756;2023-11-25T10:36:02;100389.38;;;10.82;69.20
75668;BME280;64266;48.798;44.756;2023-11-25T10:41:05;100407.16;;;11.05;67.46
75668;BME280;64266;48.798;44.756;2023-11-25T10:46:09;100409.50;;;11.13;68.72
75668;BME280;64266;48.798;44.756;2023-11-25T10:51:13;100408.69;;;11.12;67.79
75668;BME280;64266;48.798;44.756;2023-11-25T10:56:17;100413.53;;;11.15;68.66
75668;BME280;64266;48.798;44.756;2023-11-25T11:01:24;100384.09;;;10.94;67.37
75668;BME280;64266;48.798;44.756;2023-11-25T11:06:38;100390.22;;;10.94;67.59
75668;BME280;64266;48.798;44.756;2023-11-25T11:11:56;100394.34;;;11.02;67.68
75668;BME280;64266;48.798;44.756;2023-11-25T11:17:14;100396.56;;;11.05;68.37
75668;BME280;64266;48.798;44.756;2023-11-25T11:22:21;100372.56;;;11.00;67.44
75668;BME280;64266;48.798;44.756;2023-11-25T11:32:39;100348.44;;;10.89;67.66
75668;BME280;64266;48.798;44.756;2023-11-25T11:37:48;100394.72;;;11.17;67.33
75668;BME280;64266;48.798;44.756;2023-11-25T11:42:54;100403.47;;;10.94;66.73
75668;BME280;64266;48.798;44.756;2023-11-25T11:48:00;100418.91;;;10.85;66.60
75668;BME280;64266;48.798;44.756;2023-11-25T11:58:16;100473.53;;;10.75;67.62
75668;BME280;64266;48.798;44.756;2023-11-25T12:03:21;100509.78;;;10.81;68.28
75668;BME280;64266;48.798;44.756;2023-11-25T12:08:26;100517.31;;;10.66;68.65
75668;BME280;64266;48.798;44.756;2023-11-25T12:13:33;100509.00;;;10.62;69.02
75668;BME280;64266;48.798;44.756;2023-11-25T12:18:40;100510.25;;;10.60;68.64
75668;BME280;64266;48.798;44.756;2023-11-25T12:23:43;100498.53;;;10.49;70.65
75668;BME280;64266;48.798;44.756;2023-11-25T12:28:53;100532.66;;;10.64;69.33
75668;BME280;64266;48.798;44.756;2023-11-25T12:33:56;100524.28;;;10.49;70.06
75668;BME280;64266;48.798;44.756;2023-11-25T12:39:03;100561.81;;;10.46;70.76
75668;BME280;64266;48.798;44.756;2023-11-25T12:44:13;100554.97;;;10.38;72.84
75668;BME280;64266;48.798;44.756;2023-11-25T12:49:23;100545.19;;;10.39;72.94
75668;BME280;64266;48.798;44.756;2023-11-25T12:54:42;100530.91;;;10.40;73.50
75668;BME280;64266;48.798;44.756;2023-11-25T12:59:46;100526.69;;;10.50;73.42
75668;BME280;64266;48.798;44.756;2023-11-25T13:04:49;100499.59;;;10.30;73.76
75668;BME280;64266;48.798;44.756;2023-11-25T13:09:53;100534.56;;;10.39;73.35
75668;BME280;64266;48.798;44.756;2023-11-25T13:14:56;100537.28;;;10.32;75.29
75668;BME280;64266;48.798;44.756;2023-11-25T13:19:59;100537.28;;;10.32;73.83
75668;BME280;64266;48.798;44.756;2023-11-25T13:25:05;100522.03;;;10.27;76.24
75668;BME280;64266;48.798;44.756;2023-11-25T13:30:12;100492.44;;;10.30;76.63
75668;BME280;64266;48.798;44.756;2023-11-25T13:35:15;100490.91;;;10.23;75.28
75668;BME280;64266;48.798;44.756;2023-11-25T13:40:19;100489.78;;;10.30;76.63
75668;BME280;64266;48.798;44.756;2023-11-25T13:45:22;100483.44;;;10.50;74.94
75668;BME280;64266;48.798;44.756;2023-11-25T13:50:26;100495.31;;;10.47;74.46
75668;BME280;64266;48.798;44.756;2023-11-25T13:55:29;100498.63;;;10.24;74.22
75668;BME280;64266;48.798;44.756;2023-11-25T14:00:44;100486.41;;;10.05;76.55
75668;BME280;64266;48.798;44.756;2023-11-25T14:05:48;100490.41;;;10.14;76.11
75668;BME280;64266;48.798;44.756;2023-11-25T14:10:51;100490.97;;;10.16;75.28
75668;BME280;64266;48.798;44.756;2023-11-25T14:15:54;100525.09;;;10.06;75.87
75668;BME280;64266;48.798;44.756;2023-11-25T14:20:57;100539.53;;;10.10;76.48
75668;BME280;64266;48.798;44.756;2023-11-25T14:26:00;100531.19;;;10.07;77.47
75668;BME280;64266;48.798;44.756;2023-11-25T14:31:03;100541.78;;;10.13;76.52
75668;BME280;64266;48.798;44.756;2023-11-25T14:36:11;100529.09;;;10.15;76.26
75668;BME280;64266;48.798;44.756;2023-11-25T14:41:20;100532.94;;;10.19;77.06
75668;BME280;64266;48.798;44.756;2023-11-25T14:46:24;100493.28;;;10.06;78.18
75668;BME280;64266;48.798;44.756;2023-11-25T14:51:27;100521.91;;;10.22;79.00
75668;BME280;64266;48.798;44.756;2023-11-25T14:56:30;100513.19;;;10.15;79.22
75668;BME280;64266;48.798;44.756;2023-11-25T15:01:35;100515.22;;;9.95;81.47
75668;BME280;64266;48.798;44.756;2023-11-25T15:06:38;100511.09;;;9.81;83.06
75668;BME280;64266;48.798;44.756;2023-11-25T15:11:59;100517.63;;;9.97;84.82
75668;BME280;64266;48.798;44.756;2023-11-25T15:17:03;100497.75;;;9.88;86.10
75668;BME280;64266;48.798;44.756;2023-11-25T15:22:08;100492.25;;;9.89;85.98
75668;BME280;64266;48.798;44.756;2023-11-25T15:27:12;100465.25;;;9.80;86.58
75668;BME280;64266;48.798;44.756;2023-11-25T15:32:17;100477.19;;;9.90;86.82
75668;BME280;64266;48.798;44.756;2023-11-25T15:37:20;100435.00;;;9.70;87.24
75668;BME280;64266;48.798;44.756;2023-11-25T15:42:23;100428.38;;;9.61;87.42
75668;BME280;64266;48.798;44.756;2023-11-25T15:47:26;100469.72;;;9.62;88.45
75668;BME280;64266;48.798;44.756;2023-11-25T15:52:29;100496.00;;;9.57;88.01
75668;BME280;64266;48.798;44.756;2023-11-25T15:57:32;100497.06;;;9.31;89.69
75668;BME280;64266;48.798;44.756;2023-11-25T16:02:35;100499.44;;;9.08;92.64
75668;BME280;64266;48.798;44.756;2023-11-25T16:07:38;100493.59;;;8.99;94.18
75668;BME280;64266;48.798;44.756;2023-11-25T16:12:41;100492.59;;;9.00;96.21
75668;BME280;64266;48.798;44.756;2023-11-25T16:17:44;100494.19;;;8.70;96.55
75668;BME280;64266;48.798;44.756;2023-11-25T16:22:48;100465.59;;;8.54;99.69
75668;BME280;64266;48.798;44.756;2023-11-25T16:27:55;100497.72;;;8.57;100.00
75668;BME280;64266;48.798;44.756;2023-11-25T16:33:03;100513.16;;;8.54;100.00
75668;BME280;64266;48.798;44.756;2023-11-25T16:38:08;100503.03;;;8.44;100.00
75668;BME280;64266;48.798;44.756;2023-11-25T16:43:11;100511.38;;;8.48;100.00
75668;BME280;64266;48.798;44.756;2023-11-25T16:48:14;100503.03;;;8.44;100.00
75668;BME280;64266;48.798;44.756;2023-11-25T16:53:17;100471.59;;;8.30;100.00
75668;BME280;64266;48.798;44.756;2023-11-25T16:58:21;100502.78;;;8.59;100.00
75668;BME280;64266;48.798;44.756;2023-11-25T17:03:24;100473.59;;;8.41;100.00
75668;BME280;64266;48.798;44.756;2023-11-25T17:08:27;100496.91;;;8.50;100.00
75668;BME280;64266;48.798;44.756;2023-11-25T17:13:30;100511.50;;;8.59;100.00
75668;BME280;64266;48.798;44.756;2023-11-25T17:18:33;100502.19;;;8.57;100.00
75668;BME280;64266;48.798;44.756;2023-11-25T17:23:36;100485.09;;;8.53;100.00
75668;BME280;64266;48.798;44.756;2023-11-25T17:28:39;100487.22;;;8.31;100.00
75668;BME280;64266;48.798;44.756;2023-11-25T17:33:43;100502.25;;;8.37;100.00
75668;BME280;64266;48.798;44.756;2023-11-25T17:38:47;100488.88;;;8.32;100.00
75668;BME280;64266;48.798;44.756;2023-11-25T17:43:50;100472.19;;;8.25;100.00
75668;BME280;64266;48.798;44.756;2023-11-25T17:48:53;100477.28;;;8.27;100.00
75668;BME280;64266;48.798;44.756;2023-11-25T17:53:56;100483.56;;;8.26;100.00
75668;BME280;64266;48.798;44.756;2023-11-25T17:58:59;100479.34;;;8.18;100.00
75668;BME280;64266;48.798;44.756;2023-11-25T18:04:03;100480.34;;;8.24;100.00
75668;BME280;64266;48.798;44.756;2023-11-25T18:09:06;100466.50;;;8.35;100.00
75668;BME280;64266;48.798;44.756;2023-11-25T18:14:09;100446.19;;;8.29;100.00
75668;BME280;64266;48.798;44.756;2023-11-25T18:19:15;100468.72;;;8.38;100.00
75668;BME280;64266;48.798;44.756;2023-11-25T18:24:19;100468.13;;;8.36;100.00
75668;BME280;64266;48.798;44.756;2023-11-25T18:29:22;100442.31;;;8.31;100.00
75668;BME280;64266;48.798;44.756;2023-11-25T18:34:25;100426.47;;;8.31;100.00
75668;BME280;64266;48.798;44.756;2023-11-25T18:39:28;100422.81;;;8.32;100.00
75668;BME280;64266;48.798;44.756;2023-11-25T18:44:31;100425.88;;;8.23;100.00
75668;BME280;64266;48.798;44.756;2023-11-25T18:49:34;100430.91;;;8.37;100.00
75668;BME280;64266;48.798;44.756;2023-11-25T18:54:37;100425.84;;;8.36;100.00
75668;BME280;64266;48.798;44.756;2023-11-25T18:59:44;100406.03;;;8.07;100.00
75668;BME280;64266;48.798;44.756;2023-11-25T19:04:47;100425.88;;;8.23;100.00
75668;BME280;64266;48.798;44.756;2023-11-25T19:09:50;100415.72;;;8.19;100.00
75668;BME280;64266;48.798;44.756;2023-11-25T19:14:57;100395.66;;;8.12;100.00
75668;BME280;64266;48.798;44.756;2023-11-25T19:20:01;100378.41;;;8.03;100.00
75668;BME280;64266;48.798;44.756;2023-11-25T19:25:05;100375.56;;;8.11;100.00
75668;BME280;64266;48.798;44.756;2023-11-25T19:30:08;100415.34;;;8.09;100.00
75668;BME280;64266;48.798;44.756;2023-11-25T19:35:11;100408.03;;;8.18;100.00
75668;BME280;64266;48.798;44.756;2023-11-25T19:40:14;100396.22;;;8.21;100.00
75668;BME280;64266;48.798;44.756;2023-11-25T19:45:19;100376.13;;;8.13;100.00
75668;BME280;64266;48.798;44.756;2023-11-25T19:50:22;100395.41;;;8.20;100.00
75668;BME280;64266;48.798;44.756;2023-11-25T19:55:24;100367.75;;;8.29;100.00
75668;BME280;64266;48.798;44.756;2023-11-25T20:00:27;100354.91;;;8.39;100.00
75668;BME280;64266;48.798;44.756;2023-11-25T20:05:30;100372.31;;;8.47;100.00
75668;BME280;64266;48.798;44.756;2023-11-25T20:10:33;100368.22;;;8.57;100.00
75668;BME280;64266;48.798;44.756;2023-11-25T20:15:36;100387.44;;;8.64;100.00
75668;BME280;64266;48.798;44.756;2023-11-25T20:20:39;100395.16;;;8.73;100.00
75668;BME280;64266;48.798;44.756;2023-11-25T20:25:42;100358.81;;;8.61;100.00
75668;BME280;64266;48.798;44.756;2023-11-25T20:30:46;100332.72;;;8.71;100.00
75668;BME280;64266;48.798;44.756;2023-11-25T20:35:48;100292.81;;;8.55;100.00
75668;BME280;64266;48.798;44.756;2023-11-25T20:40:51;100315.22;;;8.70;100.00
75668;BME280;64266;48.798;44.756;2023-11-25T20:45:54;100293.41;;;8.57;100.00
75668;BME280;64266;48.798;44.756;2023-11-25T20:50:57;100329.88;;;8.73;100.00
75668;BME280;64266;48.798;44.756;2023-11-25T20:56:06;100326.94;;;8.81;100.00
75668;BME280;64266;48.798;44.756;2023-11-25T21:01:10;100318.16;;;8.87;100.00
75668;BME280;64266;48.798;44.756;2023-11-25T21:06:12;100292.28;;;8.89;100.00
75668;BME280;64266;48.798;44.756;2023-11-25T21:11:15;100299.44;;;8.89;100.00
75668;BME280;64266;48.798;44.756;2023-11-25T21:16:19;100297.88;;;8.81;100.00
75668;BME280;64266;48.798;44.756;2023-11-25T21:21:22;100298.69;;;8.82;100.00
75668;BME280;64266;48.798;44.756;2023-11-25T21:26:25;100310.69;;;9.02;100.00
75668;BME280;64266;48.798;44.756;2023-11-25T21:31:28;100281.06;;;8.94;100.00
75668;BME280;64266;48.798;44.756;2023-11-25T21:36:31;100268.59;;;9.01;100.00
75668;BME280;64266;48.798;44.756;2023-11-25T21:41:36;100226.06;;;9.02;100.00
75668;BME280;64266;48.798;44.756;2023-11-25T21:46:39;100194.88;;;8.68;97.00
75668;BME280;64266;48.798;44.756;2023-11-25T21:51:42;100236.31;;;8.92;98.50
75668;BME280;64266;48.798;44.756;2023-11-25T21:56:45;100245.75;;;9.06;98.94
75668;BME280;64266;48.798;44.756;2023-11-25T22:01:48;100222.91;;;8.94;98.81
75668;BME280;64266;48.798;44.756;2023-11-25T22:06:52;100225.25;;;9.02;97.08
75668;BME280;64266;48.798;44.756;2023-11-25T22:11:55;100225.63;;;9.05;98.17
75668;BME280;64266;48.798;44.756;2023-11-25T22:16:58;100236.72;;;9.14;97.16
75668;BME280;64266;48.798;44.756;2023-11-25T22:22:01;100240.84;;;9.28;98.63
75668;BME280;64266;48.798;44.756;2023-11-25T22:27:04;100205.25;;;9.24;98.71
75668;BME280;64266;48.798;44.756;2023-11-25T22:32:24;100191.66;;;9.20;97.34
75668;BME280;64266;48.798;44.756;2023-11-25T22:37:28;100194.03;;;9.29;97.76
75668;BME280;64266;48.798;44.756;2023-11-25T22:42:30;100191.06;;;9.37;96.16
75668;BME280;64266;48.798;44.756;2023-11-25T22:47:33;100208.81;;;9.48;97.59
75668;BME280;64266;48.798;44.756;2023-11-25T22:52:36;100192.78;;;9.31;95.47
75668;BME280;64266;48.798;44.756;2023-11-25T22:57:39;100188.50;;;9.30;96.82
75668;BME280;64266;48.798;44.756;2023-11-25T23:02:42;100230.72;;;9.55;97.50
75668;BME280;64266;48.798;44.756;2023-11-25T23:07:46;100229.09;;;9.54;97.59
75668;BME280;64266;48.798;44.756;2023-11-25T23:12:49;100215.81;;;9.42;96.64
75668;BME280;64266;48.798;44.756;2023-11-25T23:17:52;100192.25;;;9.41;97.07
75668;BME280;64266;48.798;44.756;2023-11-25T23:22:55;100206.53;;;9.51;98.02
75668;BME280;64266;48.798;44.756;2023-11-25T23:27:58;100194.44;;;9.44;97.54
75668;BME280;64266;48.798;44.756;2023-11-25T23:33:00;100199.88;;;9.49;98.53
75668;BME280;64266;48.798;44.756;2023-11-25T23:38:04;100187.75;;;9.41;98.17
75668;BME280;64266;48.798;44.756;2023-11-25T23:43:07;100190.53;;;9.46;98.16
75668;BME280;64266;48.798;44.756;2023-11-25T23:48:10;100186.88;;;9.47;98.60
75668;BME280;64266;48.798;44.756;2023-11-25T23:53:14;100199.53;;;9.57;97.63
75668;BME280;64266;48.798;44.756;2023-11-25T23:58:17;100195.50;;;9.54;97.93
